createdAt,value
2023-03-05T00:01:54.988Z,97.90
2023-03-05T00:04:57.769Z,98.50
2023-03-05T00:08:00.970Z,97.60
2023-03-05T00:11:06.822Z,96.70
2023-03-05T00:14:11.350Z,97.20
2023-03-05T00:17:14.118Z,97.00
2023-03-05T00:20:17.209Z,96.80
2023-03-05T00:23:20.195Z,98.00
2023-03-05T00:26:26.050Z,97.90
2023-03-05T00:29:31.663Z,97.40
2023-03-05T00:32:36.046Z,97.60
2023-03-05T00:35:46.932Z,97.70
2023-03-05T00:38:50.089Z,97.90
2023-03-05T00:41:53.692Z,96.60
2023-03-05T00:44:56.682Z,96.90
2023-03-05T00:48:00.182Z,97.10
2023-03-05T00:51:03.592Z,97.40
2023-03-05T00:54:07.180Z,97.00
2023-03-05T00:57:10.168Z,97.70
2023-03-05T01:00:15.011Z,96.90
2023-03-05T01:03:21.056Z,96.50
2023-03-05T01:06:24.344Z,96.00
2023-03-05T01:09:28.351Z,97.20
2023-03-05T01:12:31.648Z,97.20
2023-03-05T01:15:34.731Z,97.60
2023-03-05T01:18:39.346Z,96.20
2023-03-05T01:21:42.649Z,97.70
2023-03-05T01:24:45.747Z,97.40
2023-03-05T01:27:49.134Z,97.70
2023-03-05T01:30:52.018Z,97.50
2023-03-05T01:33:56.642Z,97.50
2023-03-05T01:36:59.527Z,99.40
2023-03-05T01:40:02.926Z,99.90
2023-03-05T01:43:12.253Z,99.90
2023-03-05T01:46:37.314Z,99.90
2023-03-05T01:49:41.699Z,99.90
2023-03-05T01:53:06.022Z,99.90
2023-03-05T01:56:09.783Z,99.90
2023-03-05T01:59:14.411Z,99.90
2023-03-05T02:02:18.836Z,99.90
2023-03-05T02:05:30.422Z,99.90
2023-03-05T02:08:33.742Z,99.90
2023-03-05T02:11:37.327Z,99.90
2023-03-05T02:14:41.739Z,99.90
2023-03-05T02:17:45.397Z,99.90
2023-03-05T02:20:57.157Z,99.90
2023-03-05T02:24:00.351Z,99.90
2023-03-05T02:27:05.367Z,99.30
2023-03-05T02:30:09.279Z,99.90
2023-03-05T02:33:15.026Z,99.80
2023-03-05T02:36:19.041Z,99.00
2023-03-05T02:39:22.129Z,99.90
2023-03-05T02:42:25.220Z,99.90
2023-03-05T02:45:28.020Z,98.20
2023-03-05T02:48:31.609Z,97.90
2023-03-05T02:51:34.601Z,96.80
2023-03-05T02:54:37.698Z,96.70
2023-03-05T02:57:40.782Z,97.00
2023-03-05T03:00:44.273Z,96.60
2023-03-05T03:03:47.476Z,96.10
2023-03-05T03:06:50.559Z,97.90
2023-03-05T03:09:53.756Z,99.30
2023-03-05T03:12:57.067Z,98.00
2023-03-05T03:16:09.474Z,99.40
2023-03-05T03:19:12.755Z,99.60
2023-03-05T03:22:17.080Z,97.80
2023-03-05T03:25:23.344Z,98.30
2023-03-05T03:28:26.637Z,99.00
2023-03-05T03:31:29.621Z,98.10
2023-03-05T03:34:32.715Z,97.30
2023-03-05T03:37:35.908Z,99.80
2023-03-05T03:40:39.411Z,99.90
2023-03-05T03:43:42.503Z,99.90
2023-03-05T03:46:47.431Z,99.90
2023-03-05T03:49:53.902Z,99.90
2023-03-05T03:52:56.892Z,99.90
2023-03-05T03:56:00.289Z,99.90
2023-03-05T03:59:03.193Z,99.90
2023-03-05T04:02:06.474Z,99.90
2023-03-05T04:05:09.974Z,99.90
2023-03-05T04:08:13.266Z,99.90
2023-03-05T04:11:16.376Z,99.90
2023-03-05T04:14:19.558Z,99.90
2023-03-05T04:17:22.533Z,99.90
2023-03-05T04:20:26.333Z,99.90
2023-03-05T04:23:29.542Z,99.90
2023-03-05T04:26:32.616Z,99.90
2023-03-05T04:29:35.920Z,99.90
2023-03-05T04:32:39.167Z,99.90
2023-03-05T04:35:42.239Z,99.90
2023-03-05T04:38:45.498Z,99.90
2023-03-05T04:41:49.196Z,99.90
2023-03-05T04:44:52.428Z,99.90
2023-03-05T04:47:55.791Z,99.90
2023-03-05T04:50:58.901Z,99.90
2023-03-05T04:54:01.967Z,99.90
2023-03-05T04:57:05.362Z,99.90
2023-03-05T05:00:16.344Z,99.90
2023-03-05T05:03:19.639Z,99.90
2023-03-05T05:06:22.725Z,99.90
2023-03-05T05:09:26.947Z,99.90
2023-03-05T05:12:31.161Z,99.90
2023-03-05T05:15:34.558Z,99.90
2023-03-05T05:18:38.264Z,99.90
2023-03-05T05:21:41.761Z,99.90
2023-03-05T05:24:44.752Z,99.90
2023-03-05T05:27:47.942Z,99.90
2023-03-05T05:30:51.139Z,99.90
2023-03-05T05:33:54.024Z,99.90
2023-03-05T05:36:57.320Z,99.90
2023-03-05T05:40:00.410Z,99.90
2023-03-05T05:43:03.713Z,99.90
2023-03-05T05:46:11.255Z,99.90
2023-03-05T05:49:14.196Z,99.90
2023-03-05T05:52:22.814Z,99.90
2023-03-05T05:55:25.595Z,99.90
2023-03-05T05:58:28.786Z,99.90
2023-03-05T06:01:33.681Z,99.90
2023-03-05T06:04:37.531Z,99.90
2023-03-05T06:07:40.720Z,99.90
2023-03-05T06:10:43.709Z,99.90
2023-03-05T06:13:47.537Z,99.90
2023-03-05T06:16:50.421Z,99.90
2023-03-05T06:19:55.864Z,99.90
2023-03-05T06:22:59.037Z,99.90
2023-03-05T06:26:05.205Z,99.90
2023-03-05T06:29:08.292Z,99.90
2023-03-05T06:32:11.336Z,99.90
2023-03-05T06:35:14.572Z,99.90
2023-03-05T06:38:17.876Z,99.90
2023-03-05T06:41:26.701Z,99.90
2023-03-05T06:44:29.680Z,99.90
2023-03-05T06:47:32.895Z,99.90
2023-03-05T06:50:36.978Z,99.90
2023-03-05T06:53:39.986Z,99.90
2023-03-05T06:56:46.039Z,99.90
2023-03-05T06:59:49.227Z,99.90
2023-03-05T07:02:52.323Z,99.60
2023-03-05T07:05:55.613Z,99.90
2023-03-05T07:09:01.882Z,99.90
2023-03-05T07:12:04.977Z,99.90
2023-03-05T07:15:08.777Z,99.90
2023-03-05T07:18:11.460Z,98.90
2023-03-05T07:21:26.022Z,99.90
2023-03-05T07:24:30.235Z,97.70
2023-03-05T07:27:39.060Z,96.40
2023-03-05T07:30:42.169Z,94.90
2023-03-05T07:33:49.851Z,94.70
2023-03-05T07:36:53.656Z,94.10
2023-03-05T07:39:56.979Z,93.90
2023-03-05T07:43:00.040Z,93.50
2023-03-05T07:46:11.835Z,92.40
2023-03-05T07:49:14.829Z,88.00
2023-03-05T07:52:18.439Z,90.30
2023-03-05T07:55:21.938Z,91.60
2023-03-05T07:58:26.757Z,83.80
2023-03-05T08:01:30.782Z,86.00
2023-03-05T08:04:33.767Z,85.90
2023-03-05T08:07:36.748Z,82.90
2023-03-05T08:10:40.147Z,90.00
2023-03-05T08:13:44.984Z,88.20
2023-03-05T08:16:52.654Z,84.20
2023-03-05T08:19:58.531Z,78.40
2023-03-05T08:23:02.030Z,89.90
2023-03-05T08:26:16.388Z,86.10
2023-03-05T08:29:19.480Z,79.60
2023-03-05T08:32:22.408Z,89.50
2023-03-05T08:35:25.302Z,82.40
2023-03-05T08:38:28.442Z,75.70
2023-03-05T08:41:31.741Z,73.90
2023-03-05T08:44:34.725Z,76.30
2023-03-05T08:47:37.813Z,78.00
2023-03-05T08:50:40.701Z,72.70
2023-03-05T08:53:45.639Z,75.80
2023-03-05T08:56:50.360Z,77.20
2023-03-05T08:59:53.457Z,75.10
2023-03-05T09:02:56.557Z,71.40
2023-03-05T09:06:04.653Z,67.50
2023-03-05T09:09:10.003Z,78.20
2023-03-05T09:12:13.808Z,69.20
2023-03-05T09:15:16.897Z,62.30
2023-03-05T09:18:20.194Z,71.50
2023-03-05T09:21:23.384Z,61.80
2023-03-05T09:24:26.773Z,65.50
2023-03-05T09:27:29.768Z,62.30
2023-03-05T09:30:35.429Z,62.90
2023-03-05T09:33:39.124Z,59.30
2023-03-05T09:36:42.325Z,65.90
2023-03-05T09:39:45.832Z,57.60
2023-03-05T09:43:04.261Z,53.50
2023-03-05T09:46:31.012Z,55.90
2023-03-05T09:50:01.786Z,54.00
2023-03-05T09:53:13.971Z,58.10
2023-03-05T09:56:23.097Z,59.00
2023-03-05T09:59:36.422Z,60.10
2023-03-05T10:02:54.114Z,61.10
2023-03-05T10:06:04.315Z,63.40
2023-03-05T10:09:10.681Z,69.00
2023-03-05T10:12:33.027Z,61.00
2023-03-05T10:15:52.398Z,60.10
2023-03-05T10:19:14.644Z,57.20
2023-03-05T10:22:34.828Z,51.70
2023-03-05T10:25:54.003Z,54.00
2023-03-05T10:29:12.232Z,48.30
2023-03-05T10:32:37.186Z,50.90
2023-03-05T10:36:28.161Z,47.00
2023-03-05T10:40:01.581Z,44.90
2023-03-05T10:43:23.588Z,44.90
2023-03-05T10:46:34.468Z,47.00
2023-03-05T10:49:46.366Z,45.60
2023-03-05T10:53:14.340Z,46.50
2023-03-05T10:56:21.722Z,48.60
2023-03-05T10:59:25.131Z,50.10
2023-03-05T11:02:28.411Z,41.70
2023-03-05T11:05:47.386Z,46.80
2023-03-05T11:08:50.883Z,42.50
2023-03-05T11:12:13.032Z,40.30
2023-03-05T11:15:16.526Z,38.80
2023-03-05T11:18:24.529Z,40.60
2023-03-05T11:21:28.943Z,38.80
2023-03-05T11:24:32.145Z,36.80
2023-03-05T11:27:43.832Z,40.70
2023-03-05T11:31:19.133Z,38.80
2023-03-05T11:34:30.870Z,42.70
2023-03-05T11:37:34.783Z,38.90
2023-03-05T11:40:38.593Z,40.00
2023-03-05T11:43:44.958Z,36.00
2023-03-05T11:46:53.068Z,37.60
2023-03-05T11:50:14.794Z,37.50
2023-03-05T11:53:35.806Z,33.30
2023-03-05T11:56:39.719Z,39.80
2023-03-05T11:59:44.959Z,35.30
2023-03-05T12:02:52.890Z,38.10
2023-03-05T12:06:13.777Z,39.30
2023-03-05T12:09:42.448Z,39.20
2023-03-05T12:13:00.619Z,37.50
2023-03-05T12:16:32.797Z,38.00
2023-03-05T12:20:19.949Z,39.90
2023-03-05T12:23:24.331Z,39.10
2023-03-05T12:27:06.537Z,37.20
2023-03-05T12:30:30.417Z,35.80
2023-03-05T12:33:44.263Z,37.80
2023-03-05T12:36:47.964Z,38.60
2023-03-05T12:40:09.098Z,40.20
2023-03-05T12:43:38.179Z,40.50
2023-03-05T12:46:45.397Z,40.00
2023-03-05T12:49:50.510Z,38.90
2023-03-05T12:52:55.841Z,38.30
2023-03-05T12:56:23.217Z,42.20
2023-03-05T12:59:44.015Z,39.00
2023-03-05T13:02:47.005Z,39.80
2023-03-05T13:05:56.043Z,38.10
2023-03-05T13:09:13.151Z,39.70
2023-03-05T13:12:17.729Z,37.00
2023-03-05T13:15:23.440Z,37.00
2023-03-05T13:18:32.985Z,38.60
2023-03-05T13:21:41.390Z,36.90
2023-03-05T13:24:47.217Z,37.70
2023-03-05T13:27:51.048Z,39.70
2023-03-05T13:30:59.665Z,42.30
2023-03-05T13:34:17.609Z,39.80
2023-03-05T13:37:23.561Z,40.00
2023-03-05T13:40:31.171Z,37.70
2023-03-05T13:43:36.911Z,37.70
2023-03-05T13:46:40.528Z,38.90
2023-03-05T13:49:45.395Z,37.90
2023-03-05T13:52:48.838Z,37.60
2023-03-05T13:55:59.014Z,38.20
2023-03-05T13:59:03.436Z,35.90
2023-03-05T14:02:20.239Z,39.60
2023-03-05T14:05:24.561Z,36.50
2023-03-05T14:08:28.671Z,39.20
2023-03-05T14:11:32.888Z,37.50
2023-03-05T14:14:38.966Z,37.80
2023-03-05T14:17:43.585Z,38.90
2023-03-05T14:21:09.726Z,39.00
2023-03-05T14:24:26.958Z,37.70
2023-03-05T14:27:36.887Z,40.10
2023-03-05T14:30:45.744Z,41.40
2023-03-05T14:33:51.155Z,40.50
2023-03-05T14:36:59.903Z,39.10
2023-03-05T14:40:06.272Z,37.60
2023-03-05T14:43:17.922Z,36.80
2023-03-05T14:46:21.671Z,38.80
2023-03-05T14:49:25.977Z,38.30
2023-03-05T14:52:30.492Z,36.50
2023-03-05T14:55:37.581Z,37.10
2023-03-05T14:58:42.601Z,33.90
2023-03-05T15:01:49.359Z,36.80
2023-03-05T15:04:53.512Z,37.30
2023-03-05T15:07:56.906Z,38.10
2023-03-05T15:11:01.536Z,38.40
2023-03-05T15:14:05.971Z,36.50
2023-03-05T15:17:18.471Z,34.70
2023-03-05T15:20:26.366Z,35.20
2023-03-05T15:23:36.219Z,37.60
2023-03-05T15:26:39.819Z,37.00
2023-03-05T15:29:43.425Z,35.50
2023-03-05T15:32:48.560Z,36.10
2023-03-05T15:35:52.313Z,36.20
2023-03-05T15:38:56.480Z,36.00
2023-03-05T15:42:01.626Z,39.00
2023-03-05T15:45:05.842Z,37.20
2023-03-05T15:48:10.056Z,36.90
2023-03-05T15:51:14.481Z,35.90
2023-03-05T15:54:21.153Z,35.20
2023-03-05T15:57:26.072Z,33.70
2023-03-05T16:00:32.577Z,33.30
2023-03-05T16:03:36.472Z,33.80
2023-03-05T16:06:43.655Z,32.90
2023-03-05T16:09:53.002Z,32.90
2023-03-05T16:13:04.482Z,34.90
2023-03-05T16:16:09.296Z,36.50
2023-03-05T16:19:15.775Z,37.50
2023-03-05T16:22:19.907Z,40.50
2023-03-05T16:25:23.918Z,60.80
2023-03-05T16:28:28.236Z,69.10
2023-03-05T16:31:39.737Z,82.40
2023-03-05T16:34:45.272Z,87.90
2023-03-05T16:37:49.086Z,90.80
2023-03-05T16:41:07.332Z,94.50
2023-03-05T16:44:13.180Z,95.00
2023-03-05T16:47:17.199Z,95.80
2023-03-05T16:50:21.510Z,97.00
2023-03-05T16:53:25.319Z,97.00
2023-03-05T16:56:31.279Z,97.10
2023-03-05T16:59:35.594Z,97.90
2023-03-05T17:02:39.200Z,98.80
2023-03-05T17:05:42.698Z,99.60
2023-03-05T17:08:47.021Z,99.90
2023-03-05T17:11:52.774Z,99.90
2023-03-05T17:14:56.991Z,99.90
2023-03-05T17:18:01.412Z,99.90
2023-03-05T17:21:06.243Z,99.90
2023-03-05T17:24:11.171Z,99.90
2023-03-05T17:27:15.922Z,99.90
2023-03-05T17:30:21.761Z,99.90
2023-03-05T17:33:25.505Z,99.90
2023-03-05T17:36:29.171Z,99.90
2023-03-05T17:39:33.702Z,99.90
2023-03-05T17:42:37.704Z,99.90
2023-03-05T17:45:42.229Z,99.90
2023-03-05T17:48:47.158Z,99.90
2023-03-05T17:51:51.273Z,99.90
2023-03-05T17:54:55.457Z,99.90
2023-03-05T17:58:00.430Z,99.90
2023-03-05T18:01:05.285Z,99.90
2023-03-05T18:04:10.744Z,99.90
2023-03-05T18:07:15.033Z,99.90
2023-03-05T18:10:20.877Z,99.90
2023-03-05T18:13:24.899Z,99.90
2023-03-05T18:16:30.181Z,99.90
2023-03-05T18:19:34.149Z,99.90
2023-03-05T18:22:37.750Z,99.90
2023-03-05T18:25:43.390Z,99.90
2023-03-05T18:28:48.224Z,99.90
2023-03-05T18:31:52.234Z,99.90
2023-03-05T18:34:56.227Z,99.90
2023-03-05T18:38:01.602Z,99.90
2023-03-05T18:41:07.258Z,99.90
2023-03-05T18:44:11.151Z,99.90
2023-03-05T18:47:15.267Z,99.90
2023-03-05T18:50:19.684Z,99.90
2023-03-05T18:53:23.389Z,99.90
2023-03-05T18:56:27.500Z,99.90
2023-03-05T18:59:33.770Z,99.90
2023-03-05T19:02:39.528Z,99.90
2023-03-05T19:05:44.460Z,99.90
2023-03-05T19:08:57.411Z,99.90
2023-03-05T19:12:01.493Z,99.90
2023-03-05T19:15:06.531Z,99.90
2023-03-05T19:18:11.576Z,99.90
2023-03-05T19:21:15.904Z,99.90
2023-03-05T19:24:20.613Z,99.90
2023-03-05T19:27:24.722Z,99.90
2023-03-05T19:30:29.971Z,99.90
2023-03-05T19:33:34.389Z,99.90
2023-03-05T19:36:38.007Z,99.90
2023-03-05T19:39:42.733Z,99.90
2023-03-05T19:42:47.138Z,99.90
2023-03-05T19:45:51.366Z,99.90
2023-03-05T19:48:55.572Z,99.90
2023-03-05T19:51:59.890Z,99.90
2023-03-05T19:55:05.959Z,99.90
2023-03-05T19:58:10.061Z,99.90
2023-03-05T20:01:23.050Z,99.90
2023-03-05T20:04:28.836Z,99.90
2023-03-05T20:07:33.540Z,99.90
2023-03-05T20:10:38.401Z,99.90
2023-03-05T20:13:42.921Z,99.90
2023-03-05T20:16:48.279Z,99.90
2023-03-05T20:19:56.374Z,99.90
2023-03-05T20:23:00.493Z,99.90
2023-03-05T20:26:07.063Z,99.90
2023-03-05T20:29:11.370Z,99.90
2023-03-05T20:32:15.652Z,99.90
2023-03-05T20:35:20.557Z,99.90
2023-03-05T20:38:31.817Z,99.90
2023-03-05T20:41:37.155Z,99.90
2023-03-05T20:44:41.059Z,99.90
2023-03-05T20:47:50.612Z,99.90
2023-03-05T20:50:54.208Z,99.90
2023-03-05T20:54:04.365Z,99.90
2023-03-05T20:57:08.892Z,99.90
2023-03-05T21:00:13.742Z,99.90
2023-03-05T21:03:23.540Z,99.90
2023-03-05T21:06:31.064Z,99.90
2023-03-05T21:09:34.666Z,99.90
2023-03-05T21:12:38.792Z,99.90
2023-03-05T21:15:43.205Z,99.90
2023-03-05T21:18:46.804Z,99.90
2023-03-05T21:21:56.241Z,99.90
2023-03-05T21:25:15.623Z,99.90
2023-03-05T21:28:19.221Z,99.90
2023-03-05T21:31:25.024Z,99.90
2023-03-05T21:34:28.577Z,99.90
2023-03-05T21:37:34.017Z,99.90
2023-03-05T21:40:45.939Z,99.90
2023-03-05T21:43:50.541Z,99.90
2023-03-05T21:46:54.651Z,99.90
2023-03-05T21:49:57.751Z,99.90
2023-03-05T21:53:02.673Z,99.90
2023-03-05T21:56:24.399Z,99.90
2023-03-05T21:59:27.590Z,99.90
2023-03-05T22:02:30.578Z,99.90
2023-03-05T22:05:33.461Z,99.90
2023-03-05T22:08:36.651Z,99.90
2023-03-05T22:11:43.029Z,99.90
2023-03-05T22:14:46.115Z,99.90
2023-03-05T22:17:49.608Z,99.90
2023-03-05T22:20:53.312Z,99.90
2023-03-05T22:23:57.527Z,99.90
2023-03-05T22:27:02.261Z,99.90
2023-03-05T22:30:14.664Z,99.90
2023-03-05T22:33:17.952Z,99.90
2023-03-05T22:36:21.474Z,99.90
2023-03-05T22:39:24.546Z,99.90
2023-03-05T22:42:27.640Z,99.90
2023-03-05T22:45:30.932Z,99.90
2023-03-05T22:48:33.919Z,99.90
2023-03-05T22:51:37.308Z,99.90
2023-03-05T22:54:40.202Z,99.90
2023-03-05T22:57:44.319Z,99.90
2023-03-05T23:00:47.417Z,99.90
2023-03-05T23:03:55.350Z,99.90
2023-03-05T23:06:58.510Z,99.90
2023-03-05T23:10:12.658Z,99.90
2023-03-05T23:13:15.649Z,99.90
2023-03-05T23:16:18.894Z,99.90
2023-03-05T23:19:21.928Z,99.90
2023-03-05T23:22:24.921Z,99.90
2023-03-05T23:25:30.781Z,99.90
2023-03-05T23:28:33.971Z,99.90
2023-03-05T23:31:36.984Z,99.90
2023-03-05T23:34:40.357Z,99.90
2023-03-05T23:37:43.443Z,99.90
2023-03-05T23:40:51.243Z,99.90
2023-03-05T23:43:54.902Z,99.90
2023-03-05T23:46:57.932Z,99.90
2023-03-05T23:50:00.918Z,99.90
2023-03-05T23:53:04.620Z,99.90
2023-03-05T23:56:11.815Z,99.90
2023-03-05T23:59:14.487Z,99.90
